Terminal Aerodrome Forecast
Issued by NWS Duluth, MN

Home | Current Version | Previous Version | Text Only | Print | Product List | Glossary On
Versions: 1 2 3 4 5 6 7 8 9 10 11 12 13 14 15 16 17 18 19 20
022
FTUS43 KDLH 011555 AAD
TAFDLH
TAF AMD
KDLH 011555Z 0116/0212 08012KT P6SM SCT025
     FM012100 09008KT P6SM SKC
     FM020300 VRB03KT P6SM SKC=

USA.gov is the U.S. government's official web portal to all federal, state and local government web resources and services.